createdAt,value
2022-10-01T00:01:54.675Z,12.20
2022-10-01T00:04:23.021Z,12.20
2022-10-01T00:06:51.132Z,12.10
2022-10-01T00:09:19.234Z,12.20
2022-10-01T00:11:47.356Z,12.20
2022-10-01T00:14:15.636Z,12.20
2022-10-01T00:16:45.396Z,12.20
2022-10-01T00:19:14.832Z,12.20
2022-10-01T00:21:43.014Z,12.20
2022-10-01T00:24:13.858Z,12.20
2022-10-01T00:26:45.513Z,12.10
2022-10-01T00:29:15.313Z,12.10
2022-10-01T00:31:44.878Z,12.10
2022-10-01T00:34:15.217Z,12.10
2022-10-01T00:36:43.393Z,12.10
2022-10-01T00:39:13.083Z,12.10
2022-10-01T00:41:41.717Z,12.10
2022-10-01T00:44:29.910Z,12.10
2022-10-01T00:47:04.003Z,12.10
2022-10-01T00:49:35.165Z,12.10
2022-10-01T00:52:07.099Z,12.10
2022-10-01T00:54:36.573Z,12.00
2022-10-01T00:57:07.552Z,12.10
2022-10-01T00:59:37.584Z,12.10
2022-10-01T01:02:07.124Z,12.00
2022-10-01T01:04:35.346Z,12.00
2022-10-01T01:07:05.585Z,12.00
2022-10-01T01:09:37.493Z,12.00
2022-10-01T01:12:14.959Z,12.00
2022-10-01T01:14:52.453Z,12.00
2022-10-01T01:17:29.375Z,12.00
2022-10-01T01:20:16.255Z,12.00
2022-10-01T01:22:55.318Z,11.90
2022-10-01T01:25:35.070Z,12.00
2022-10-01T01:28:11.889Z,12.00
2022-10-01T01:30:42.081Z,12.00
2022-10-01T01:33:15.735Z,12.00
2022-10-01T01:35:52.171Z,12.00
2022-10-01T01:38:27.989Z,12.00
2022-10-01T01:41:00.275Z,12.00
2022-10-01T01:43:33.185Z,12.00
2022-10-01T01:46:03.826Z,12.00
2022-10-01T01:48:35.162Z,12.00
2022-10-01T01:51:09.763Z,12.00
2022-10-01T01:53:37.921Z,12.00
2022-10-01T01:56:06.855Z,11.90
2022-10-01T01:58:37.163Z,11.90
2022-10-01T02:01:05.915Z,12.00
2022-10-01T02:03:35.822Z,12.00
2022-10-01T02:06:14.527Z,12.00
2022-10-01T02:08:50.549Z,12.10
2022-10-01T02:11:25.451Z,12.20
2022-10-01T02:14:05.122Z,12.20
2022-10-01T02:16:42.976Z,12.30
2022-10-01T02:19:19.967Z,12.30
2022-10-01T02:21:59.814Z,12.30
2022-10-01T02:24:37.754Z,12.40
2022-10-01T02:27:10.614Z,12.40
2022-10-01T02:29:41.353Z,12.50
2022-10-01T02:32:10.807Z,12.60
2022-10-01T02:34:40.153Z,12.60
2022-10-01T02:37:10.085Z,12.60
2022-10-01T02:39:41.403Z,12.60
2022-10-01T02:42:11.200Z,12.70
2022-10-01T02:44:43.184Z,12.70
2022-10-01T02:47:14.232Z,12.70
2022-10-01T02:49:42.653Z,12.80
2022-10-01T02:52:17.136Z,12.80
2022-10-01T02:54:51.209Z,12.90
2022-10-01T02:57:28.131Z,12.80
2022-10-01T02:59:59.809Z,12.90
2022-10-01T03:02:28.707Z,12.90
2022-10-01T03:04:57.813Z,13.00
2022-10-01T03:07:26.425Z,13.00
2022-10-01T03:09:54.652Z,13.00
2022-10-01T03:12:23.531Z,13.00
2022-10-01T03:14:52.371Z,13.00
2022-10-01T03:17:22.116Z,13.00
2022-10-01T03:19:50.337Z,13.00
2022-10-01T03:22:22.543Z,13.00
2022-10-01T03:24:51.008Z,13.00
2022-10-01T03:27:19.519Z,13.00
2022-10-01T03:29:48.003Z,13.00
2022-10-01T03:32:16.935Z,12.90
2022-10-01T03:34:46.662Z,12.90
2022-10-01T03:37:14.964Z,12.90
2022-10-01T03:39:43.139Z,12.90
2022-10-01T03:42:11.250Z,12.90
2022-10-01T03:44:39.409Z,12.80
2022-10-01T03:47:07.509Z,12.90
2022-10-01T03:49:35.685Z,12.80
2022-10-01T03:52:06.523Z,12.80
2022-10-01T03:54:35.184Z,12.80
2022-10-01T03:57:03.367Z,12.80
2022-10-01T03:59:31.579Z,12.80
2022-10-01T04:01:59.766Z,12.70
2022-10-01T04:04:29.004Z,12.70
2022-10-01T04:06:57.140Z,12.70
2022-10-01T04:09:26.670Z,12.70
2022-10-01T04:11:55.142Z,12.70
2022-10-01T04:14:23.221Z,12.70
2022-10-01T04:16:52.381Z,12.60
2022-10-01T04:19:21.440Z,12.60
2022-10-01T04:21:49.507Z,12.60
2022-10-01T04:24:17.677Z,12.60
2022-10-01T04:26:47.158Z,12.60
2022-10-01T04:29:15.463Z,12.50
2022-10-01T04:31:43.609Z,12.60
2022-10-01T04:34:11.729Z,12.50
2022-10-01T04:36:39.911Z,12.50
2022-10-01T04:39:08.316Z,12.50
2022-10-01T04:41:36.636Z,12.50
2022-10-01T04:44:06.983Z,12.50
2022-10-01T04:46:35.169Z,12.50
2022-10-01T04:49:03.320Z,12.50
2022-10-01T04:51:31.728Z,12.50
2022-10-01T04:53:59.997Z,12.50
2022-10-01T04:56:28.120Z,12.50
2022-10-01T04:58:56.287Z,12.50
2022-10-01T05:01:25.822Z,12.50
2022-10-01T05:03:54.104Z,12.50
2022-10-01T05:06:22.183Z,12.50
2022-10-01T05:08:50.316Z,12.40
2022-10-01T05:11:18.470Z,12.40
2022-10-01T05:13:46.853Z,12.40
2022-10-01T05:16:14.970Z,12.40
2022-10-01T05:18:44.764Z,12.40
2022-10-01T05:21:15.502Z,12.40
2022-10-01T05:23:43.665Z,12.40
2022-10-01T05:26:11.759Z,12.40
2022-10-01T05:28:43.298Z,12.40
2022-10-01T05:31:12.285Z,12.40
2022-10-01T05:33:40.385Z,12.40
2022-10-01T05:36:09.986Z,12.40
2022-10-01T05:38:38.102Z,12.40
2022-10-01T05:41:06.395Z,12.40
2022-10-01T05:43:36.110Z,12.40
2022-10-01T05:46:05.397Z,12.30
2022-10-01T05:48:34.654Z,12.30
2022-10-01T05:51:03.163Z,12.30
2022-10-01T05:53:32.639Z,12.30
2022-10-01T05:56:03.132Z,12.30
2022-10-01T05:58:31.307Z,12.30
2022-10-01T06:00:59.711Z,12.30
2022-10-01T06:03:28.899Z,12.30
2022-10-01T06:05:57.231Z,12.30
2022-10-01T06:08:26.122Z,12.40
2022-10-01T06:11:01.008Z,12.40
2022-10-01T06:13:29.328Z,12.40
2022-10-01T06:15:57.817Z,12.50
2022-10-01T06:18:27.332Z,12.50
2022-10-01T06:20:55.468Z,12.50
2022-10-01T06:23:23.610Z,12.50
2022-10-01T06:25:51.858Z,12.60
2022-10-01T06:28:21.960Z,12.60
2022-10-01T06:30:50.520Z,12.60
2022-10-01T06:33:19.593Z,12.60
2022-10-01T06:35:49.880Z,12.60
2022-10-01T06:38:20.002Z,12.60
2022-10-01T06:40:53.584Z,12.60
2022-10-01T06:43:23.387Z,12.60
2022-10-01T06:45:51.622Z,12.60
2022-10-01T06:48:21.003Z,12.60
2022-10-01T06:50:52.246Z,12.60
2022-10-01T06:53:20.470Z,12.60
2022-10-01T06:55:49.940Z,12.60
2022-10-01T06:58:20.237Z,12.60
2022-10-01T07:00:50.563Z,12.60
2022-10-01T07:03:21.430Z,12.60
2022-10-01T07:05:50.239Z,12.70
2022-10-01T07:08:19.493Z,12.70
2022-10-01T07:10:47.579Z,12.70
2022-10-01T07:13:17.746Z,12.70
2022-10-01T07:15:46.766Z,12.70
2022-10-01T07:18:16.969Z,12.70
2022-10-01T07:20:45.250Z,12.70
2022-10-01T07:23:15.225Z,12.80
2022-10-01T07:25:44.233Z,12.80
2022-10-01T07:28:16.592Z,12.80
2022-10-01T07:30:48.321Z,12.80
2022-10-01T07:33:19.407Z,12.90
2022-10-01T07:35:48.310Z,12.90
2022-10-01T07:38:16.739Z,12.90
2022-10-01T07:40:44.908Z,13.00
2022-10-01T07:43:14.648Z,13.00
2022-10-01T07:45:43.060Z,13.00
2022-10-01T07:48:11.295Z,13.00
2022-10-01T07:50:40.768Z,13.00
2022-10-01T07:53:08.835Z,13.00
2022-10-01T07:55:36.899Z,13.10
2022-10-01T07:58:06.091Z,13.10
2022-10-01T08:00:35.448Z,13.10
2022-10-01T08:03:03.602Z,13.10
2022-10-01T08:05:33.588Z,13.20
2022-10-01T08:08:05.742Z,13.10
2022-10-01T08:10:36.094Z,13.10
2022-10-01T08:13:08.838Z,13.20
2022-10-01T08:15:37.019Z,13.20
2022-10-01T08:18:05.509Z,13.20
2022-10-01T08:20:33.581Z,13.20
2022-10-01T08:23:09.000Z,13.20
2022-10-01T08:25:38.091Z,13.20
2022-10-01T08:28:06.600Z,13.20
2022-10-01T08:30:35.003Z,13.20
2022-10-01T08:33:03.959Z,13.20
2022-10-01T08:35:32.894Z,13.30
2022-10-01T08:38:03.038Z,13.30
2022-10-01T08:40:36.704Z,13.40
2022-10-01T08:43:07.569Z,13.40
2022-10-01T08:45:41.489Z,13.50
2022-10-01T08:48:19.693Z,13.50
2022-10-01T08:50:53.788Z,13.50
2022-10-01T08:53:32.301Z,13.50
2022-10-01T08:56:03.244Z,13.60
2022-10-01T08:58:40.840Z,13.60
2022-10-01T09:01:11.952Z,13.60
2022-10-01T09:03:41.279Z,13.60
2022-10-01T09:06:20.553Z,13.60
2022-10-01T09:09:06.896Z,13.60
2022-10-01T09:11:53.871Z,13.60
2022-10-01T09:14:35.510Z,13.60
2022-10-01T09:17:11.333Z,13.60
2022-10-01T09:19:56.934Z,13.70
2022-10-01T09:22:35.547Z,13.70
2022-10-01T09:25:16.973Z,13.70
2022-10-01T09:27:47.674Z,13.70
2022-10-01T09:30:19.922Z,13.70
2022-10-01T09:32:53.224Z,13.70
2022-10-01T09:35:30.883Z,13.80
2022-10-01T09:38:03.624Z,13.80
2022-10-01T09:40:37.101Z,13.80
2022-10-01T09:43:09.054Z,13.90
2022-10-01T09:45:38.178Z,13.90
2022-10-01T09:48:19.068Z,13.90
2022-10-01T09:50:56.428Z,14.00
2022-10-01T09:53:30.371Z,13.90
2022-10-01T09:56:04.422Z,14.00
2022-10-01T09:58:38.463Z,14.00
2022-10-01T10:01:18.310Z,14.00
2022-10-01T10:03:56.092Z,14.00
2022-10-01T10:06:28.062Z,14.00
2022-10-01T10:08:56.823Z,14.10
2022-10-01T10:11:28.133Z,14.10
2022-10-01T10:14:01.270Z,14.10
2022-10-01T10:16:32.506Z,14.10
2022-10-01T10:19:09.652Z,14.20
2022-10-01T10:21:38.464Z,14.20
2022-10-01T10:24:22.204Z,14.30
2022-10-01T10:26:54.896Z,14.40
2022-10-01T10:29:32.003Z,14.40
2022-10-01T10:32:04.021Z,14.40
2022-10-01T10:34:38.305Z,14.50
2022-10-01T10:37:13.963Z,14.60
2022-10-01T10:39:46.769Z,14.70
2022-10-01T10:42:16.167Z,14.70
2022-10-01T10:44:49.355Z,14.80
2022-10-01T10:47:20.234Z,14.90
2022-10-01T10:49:52.458Z,14.90
2022-10-01T10:52:24.343Z,14.90
2022-10-01T10:54:52.964Z,15.00
2022-10-01T10:57:27.811Z,15.00
2022-10-01T10:59:59.339Z,15.10
2022-10-01T11:02:30.136Z,15.20
2022-10-01T11:05:03.632Z,15.20
2022-10-01T11:07:33.395Z,15.30
2022-10-01T11:10:26.801Z,15.30
2022-10-01T11:13:08.913Z,15.40
2022-10-01T11:16:14.733Z,15.50
2022-10-01T11:19:01.577Z,15.50
2022-10-01T11:21:49.106Z,15.60
2022-10-01T11:24:35.511Z,15.70
2022-10-01T11:27:12.452Z,15.70
2022-10-01T11:29:49.335Z,15.80
2022-10-01T11:32:26.460Z,15.90
2022-10-01T11:35:16.828Z,15.90
2022-10-01T11:38:06.617Z,15.90
2022-10-01T11:40:39.400Z,16.00
2022-10-01T11:43:17.639Z,16.00
2022-10-01T11:45:49.678Z,16.10
2022-10-01T11:48:27.327Z,16.10
2022-10-01T11:51:01.237Z,16.20
2022-10-01T11:53:33.863Z,16.20
2022-10-01T11:56:25.490Z,16.30
2022-10-01T11:58:58.213Z,16.30
2022-10-01T12:01:33.120Z,16.40
2022-10-01T12:04:18.495Z,16.40
2022-10-01T12:06:55.932Z,16.50
2022-10-01T12:09:30.346Z,16.60
2022-10-01T12:12:02.720Z,16.60
2022-10-01T12:14:39.119Z,16.70
2022-10-01T12:17:14.387Z,16.80
2022-10-01T12:19:50.461Z,16.80
2022-10-01T12:22:24.891Z,16.90
2022-10-01T12:24:54.332Z,17.00
2022-10-01T12:27:42.474Z,17.10
2022-10-01T12:30:14.524Z,17.10
2022-10-01T12:32:56.055Z,17.20
2022-10-01T12:35:39.556Z,17.20
2022-10-01T12:38:21.666Z,17.30
2022-10-01T12:40:52.481Z,17.30
2022-10-01T12:43:58.416Z,17.40
2022-10-01T12:46:37.819Z,17.40
2022-10-01T12:49:22.264Z,17.50
2022-10-01T12:52:00.302Z,17.50
2022-10-01T12:54:50.475Z,17.50
2022-10-01T12:57:33.216Z,17.60
2022-10-01T13:00:11.482Z,17.60
2022-10-01T13:03:07.091Z,17.60
2022-10-01T13:05:41.197Z,17.60
2022-10-01T13:08:28.850Z,17.70
2022-10-01T13:11:05.549Z,17.80
2022-10-01T13:13:34.716Z,17.80
2022-10-01T13:16:11.946Z,17.90
2022-10-01T13:18:52.058Z,17.80
2022-10-01T13:21:28.659Z,17.90
2022-10-01T13:24:02.534Z,17.90
2022-10-01T13:26:37.127Z,17.90
2022-10-01T13:29:20.244Z,17.90
2022-10-01T13:31:57.913Z,17.90
2022-10-01T13:34:36.258Z,18.00
2022-10-01T13:37:16.802Z,18.00
2022-10-01T13:39:47.448Z,18.00
2022-10-01T13:42:27.124Z,18.00
2022-10-01T13:44:58.336Z,18.10
2022-10-01T13:47:26.993Z,18.10
2022-10-01T13:49:57.823Z,18.10
2022-10-01T13:52:26.046Z,18.10
2022-10-01T13:54:56.926Z,18.00
2022-10-01T13:57:32.051Z,17.80
2022-10-01T14:00:02.492Z,17.60
2022-10-01T14:02:34.384Z,17.40
2022-10-01T14:05:31.070Z,17.20
2022-10-01T14:08:11.572Z,17.00
2022-10-01T14:11:05.723Z,16.80
2022-10-01T14:14:00.388Z,16.70
2022-10-01T14:16:29.596Z,16.50
2022-10-01T14:18:57.868Z,16.40
2022-10-01T14:21:39.567Z,16.20
2022-10-01T14:24:18.366Z,16.10
2022-10-01T14:26:54.259Z,16.00
2022-10-01T14:29:34.863Z,15.90
2022-10-01T14:32:17.716Z,15.80
2022-10-01T14:35:02.843Z,15.80
2022-10-01T14:37:31.265Z,15.70
2022-10-01T14:40:04.026Z,15.70
2022-10-01T14:42:33.510Z,15.70
2022-10-01T14:45:01.581Z,15.60
2022-10-01T14:47:35.615Z,15.60
2022-10-01T14:50:11.238Z,15.60
2022-10-01T14:52:46.132Z,15.60
2022-10-01T14:55:17.208Z,15.50
2022-10-01T14:57:50.063Z,15.50
2022-10-01T15:00:20.713Z,15.50
2022-10-01T15:02:50.843Z,15.50
2022-10-01T15:05:24.954Z,15.50
2022-10-01T15:07:53.809Z,15.50
2022-10-01T15:10:25.005Z,15.50
2022-10-01T15:12:55.704Z,15.50
2022-10-01T15:15:29.928Z,15.50
2022-10-01T15:17:58.172Z,15.60
2022-10-01T15:20:26.505Z,15.50
2022-10-01T15:23:01.046Z,15.50
2022-10-01T15:25:32.349Z,15.50
2022-10-01T15:28:02.265Z,15.60
2022-10-01T15:30:30.908Z,15.60
2022-10-01T15:32:59.133Z,15.60
2022-10-01T15:35:27.500Z,15.60
2022-10-01T15:38:00.447Z,15.70
2022-10-01T15:40:30.971Z,15.70
2022-10-01T15:43:26.632Z,15.70
2022-10-01T15:46:32.825Z,15.80
2022-10-01T15:49:20.286Z,15.80
2022-10-01T15:52:06.902Z,15.80
2022-10-01T15:54:36.183Z,15.80
2022-10-01T15:57:06.424Z,15.80
2022-10-01T15:59:36.942Z,15.80
2022-10-01T16:02:10.792Z,15.90
2022-10-01T16:04:39.439Z,15.90
2022-10-01T16:07:07.591Z,15.90
2022-10-01T16:09:35.658Z,15.90
2022-10-01T16:12:06.348Z,15.90
2022-10-01T16:14:39.366Z,15.90
2022-10-01T16:17:28.432Z,15.90
2022-10-01T16:19:58.444Z,15.90
2022-10-01T16:22:28.908Z,15.90
2022-10-01T16:24:58.178Z,15.90
2022-10-01T16:27:28.145Z,15.90
2022-10-01T16:30:05.055Z,15.90
2022-10-01T16:32:34.416Z,15.90
2022-10-01T16:35:20.764Z,15.90
2022-10-01T16:37:50.373Z,15.90
2022-10-01T16:40:19.048Z,15.90
2022-10-01T16:42:48.139Z,15.80
2022-10-01T16:45:19.770Z,15.80
2022-10-01T16:47:47.874Z,15.80
2022-10-01T16:50:18.116Z,15.80
2022-10-01T16:52:46.580Z,15.70
2022-10-01T16:55:20.377Z,15.70
2022-10-01T16:57:48.463Z,15.60
2022-10-01T17:00:19.551Z,15.60
2022-10-01T17:02:48.664Z,15.60
2022-10-01T17:05:19.865Z,15.60
2022-10-01T17:07:48.031Z,15.50
2022-10-01T17:10:17.686Z,15.50
2022-10-01T17:12:47.828Z,15.60
2022-10-01T17:15:19.366Z,15.50
2022-10-01T17:17:47.902Z,15.50
2022-10-01T17:20:16.477Z,15.50
2022-10-01T17:22:44.596Z,15.50
2022-10-01T17:25:16.101Z,15.50
2022-10-01T17:27:44.439Z,15.40
2022-10-01T17:30:13.260Z,15.40
2022-10-01T17:32:43.741Z,15.40
2022-10-01T17:35:13.468Z,15.40
2022-10-01T17:37:44.530Z,15.30
2022-10-01T17:40:15.126Z,15.30
2022-10-01T17:42:43.294Z,15.30
2022-10-01T17:45:13.800Z,15.30
2022-10-01T17:47:46.477Z,15.30
2022-10-01T17:50:15.881Z,15.30
2022-10-01T17:52:44.854Z,15.30
2022-10-01T17:55:13.176Z,15.30
2022-10-01T17:57:41.303Z,15.30
2022-10-01T18:00:10.507Z,15.30
2022-10-01T18:02:43.201Z,15.30
2022-10-01T18:05:14.807Z,15.30
2022-10-01T18:07:43.664Z,15.20
2022-10-01T18:10:13.791Z,15.20
2022-10-01T18:12:41.927Z,15.20
2022-10-01T18:15:10.723Z,15.20
2022-10-01T18:17:43.527Z,15.20
2022-10-01T18:20:16.025Z,15.20
2022-10-01T18:22:44.169Z,15.10
2022-10-01T18:25:13.901Z,15.10
2022-10-01T18:27:41.969Z,15.10
2022-10-01T18:30:10.843Z,15.10
2022-10-01T18:32:41.795Z,15.10
2022-10-01T18:35:20.228Z,15.00
2022-10-01T18:37:52.521Z,15.00
2022-10-01T18:40:24.214Z,14.90
2022-10-01T18:42:58.873Z,14.90
2022-10-01T18:45:44.685Z,14.90
2022-10-01T18:48:35.467Z,14.80
2022-10-01T18:51:12.288Z,14.80
2022-10-01T18:53:58.847Z,14.70
2022-10-01T18:56:32.692Z,14.70
2022-10-01T18:59:31.577Z,14.70
2022-10-01T19:02:22.218Z,14.60
2022-10-01T19:05:18.328Z,14.60
2022-10-01T19:07:57.505Z,14.50
2022-10-01T19:10:35.636Z,14.50
2022-10-01T19:13:15.930Z,14.40
2022-10-01T19:15:56.932Z,14.40
2022-10-01T19:18:37.203Z,14.40
2022-10-01T19:21:19.778Z,14.30
2022-10-01T19:24:12.734Z,14.30
2022-10-01T19:26:45.586Z,14.30
2022-10-01T19:29:28.657Z,14.30
2022-10-01T19:32:01.292Z,14.20
2022-10-01T19:34:35.215Z,14.20
2022-10-01T19:37:10.755Z,14.20
2022-10-01T19:39:42.318Z,14.20
2022-10-01T19:42:17.490Z,14.20
2022-10-01T19:44:54.565Z,14.20
2022-10-01T19:47:37.407Z,14.10
2022-10-01T19:50:18.416Z,14.10
2022-10-01T19:52:50.630Z,14.10
2022-10-01T19:55:22.935Z,14.10
2022-10-01T19:57:51.771Z,14.10
2022-10-01T20:00:22.079Z,14.00
2022-10-01T20:03:01.788Z,14.00
2022-10-01T20:05:33.050Z,13.90
2022-10-01T20:08:07.631Z,13.90
2022-10-01T20:10:44.677Z,13.90
2022-10-01T20:13:25.840Z,13.90
2022-10-01T20:16:00.664Z,13.80
2022-10-01T20:18:39.372Z,13.80
2022-10-01T20:21:24.022Z,13.80
2022-10-01T20:23:58.584Z,13.80
2022-10-01T20:26:36.933Z,13.70
2022-10-01T20:29:21.494Z,13.70
2022-10-01T20:31:58.359Z,13.70
2022-10-01T20:34:37.828Z,13.70
2022-10-01T20:37:18.734Z,13.70
2022-10-01T20:39:52.031Z,13.60
2022-10-01T20:42:26.911Z,13.60
2022-10-01T20:44:56.098Z,13.60
2022-10-01T20:47:30.155Z,13.60
2022-10-01T20:50:09.098Z,13.50
2022-10-01T20:52:46.875Z,13.50
2022-10-01T20:55:19.613Z,13.50
2022-10-01T20:57:53.274Z,13.50
2022-10-01T21:00:23.518Z,13.40
2022-10-01T21:02:57.427Z,13.50
2022-10-01T21:05:30.304Z,13.40
2022-10-01T21:08:04.319Z,13.40
2022-10-01T21:10:42.465Z,13.30
2022-10-01T21:13:19.091Z,13.30
2022-10-01T21:15:56.013Z,13.30
2022-10-01T21:18:36.165Z,13.20
2022-10-01T21:21:13.225Z,13.20
2022-10-01T21:23:57.355Z,13.20
2022-10-01T21:26:35.553Z,13.10
2022-10-01T21:29:24.402Z,13.10
2022-10-01T21:32:04.780Z,13.10
2022-10-01T21:34:48.264Z,13.00
2022-10-01T21:37:23.818Z,13.00
2022-10-01T21:40:01.310Z,13.00
2022-10-01T21:42:41.435Z,13.00
2022-10-01T21:45:25.888Z,13.00
2022-10-01T21:48:18.292Z,12.90
2022-10-01T21:50:51.050Z,12.90
2022-10-01T21:53:39.395Z,12.90
2022-10-01T21:56:30.103Z,12.80
2022-10-01T21:59:07.393Z,12.80
2022-10-01T22:02:01.688Z,12.70
2022-10-01T22:04:36.524Z,12.70
2022-10-01T22:07:14.415Z,12.60
2022-10-01T22:09:45.907Z,12.60
2022-10-01T22:12:14.956Z,12.50
2022-10-01T22:14:45.390Z,12.50
2022-10-01T22:17:20.411Z,12.50
2022-10-01T22:19:52.176Z,12.50
2022-10-01T22:22:25.563Z,12.50
2022-10-01T22:24:55.250Z,12.40
2022-10-01T22:27:27.736Z,12.40
2022-10-01T22:29:59.625Z,12.40
2022-10-01T22:32:32.877Z,12.30
2022-10-01T22:35:05.837Z,12.30
2022-10-01T22:37:39.086Z,12.30
2022-10-01T22:40:13.198Z,12.30
2022-10-01T22:42:45.749Z,12.20
2022-10-01T22:45:16.503Z,12.20
2022-10-01T22:48:06.935Z,12.20
2022-10-01T22:50:52.024Z,12.10
2022-10-01T22:53:36.207Z,12.10
2022-10-01T22:56:04.331Z,12.10
2022-10-01T22:58:45.304Z,12.10
2022-10-01T23:01:24.045Z,12.00
2022-10-01T23:04:06.295Z,12.00
2022-10-01T23:06:37.768Z,12.00
2022-10-01T23:09:14.374Z,11.90
2022-10-01T23:11:52.911Z,12.00
2022-10-01T23:14:40.123Z,11.90
2022-10-01T23:17:14.715Z,11.90
2022-10-01T23:19:57.006Z,11.90
2022-10-01T23:22:42.662Z,11.90
2022-10-01T23:25:20.084Z,11.90
2022-10-01T23:28:04.049Z,11.90
2022-10-01T23:30:39.708Z,11.90
2022-10-01T23:33:22.369Z,11.90
2022-10-01T23:36:01.079Z,11.90
2022-10-01T23:38:50.604Z,11.90
2022-10-01T23:41:26.382Z,11.90
2022-10-01T23:43:58.947Z,11.90
2022-10-01T23:46:30.730Z,12.00
2022-10-01T23:49:02.989Z,12.00
2022-10-01T23:51:39.309Z,12.00
2022-10-01T23:54:15.709Z,12.00
2022-10-01T23:56:49.315Z,11.90
2022-10-01T23:59:22.904Z,12.00
